Raporty najbliższych stacji METAR

 

EPPO - Poznan/Lawica, Poland
Odległość od stacji: Zd 102km
Aktualizacja: 18-07-23 11:00
Bezchmurnie
Bezchmurnie
 Wiatr z PnZd
Wiatr: PnZd 9 km/h
Temperatura: 26°C
Punkt Rosy: 13°C
Wilgotność: 45%
Ciśnienie: 1015 hPa
Podsumowanie: Bezchmurnie
Widoczność: większa niż 10 km
2018/07/23 09:00 EPPO 230900Z 31005KT CAVOK 26/13 Q1015
EPLL - Łódź, Ziemia Łódzka, Polska
Odległość od stacji: ES 127km
Aktualizacja: 18-07-23 11:00
Bezchmurnie
Bezchmurnie
 Wiatr z PnZd
Wiatr: PnZd 17 km/h
Temperatura: 24°C
Punkt Rosy: 14°C
Wilgotność: 54%
Ciśnienie: 1013 hPa
Podsumowanie: Bezchmurnie
Widoczność: większa niż 10 km
2018/07/23 09:00 EPLL 230900Z 31009KT 270V360 CAVOK 24/14 Q1013
EPWR - Wrocław, Dolny Śląsk, Polska
Odległość od stacji: PdZd 198km
Aktualizacja: 18-07-23 11:00
niewielkie zachmurzenie
niewielkie zachmurzenie
 Wiatr z PnPnZd
Wiatr: PnPnZd 15 km/h
Temperatura: 25°C
Punkt Rosy: 16°C
Wilgotność: 57%
Ciśnienie: 1014 hPa
Zachmurzenie: niewielkie zachmurzenie
Widoczność: 10 km
Szczegóły o zachmurzeniu: niewielkie zachmurzenie 1219 m
2018/07/23 09:00 EPWR 230900Z 34008KT 300V040 9999 FEW040 25/16 Q1014
 
EPWA - Warszawa, Mazowsze, Polska
Odległość od stacji: Ws 209km
Aktualizacja: 18-07-23 11:00
Bezchmurnie
Bezchmurnie
 Wiatr z PnPnZd
Wiatr: PnPnZd 19 km/h
Temperatura: 26°C
Punkt Rosy: 15°C
Wilgotność: 51%
Ciśnienie: 1012 hPa
Podsumowanie: Bezchmurnie
Widoczność: większa niż 10 km
2018/07/23 09:00 EPWA 230900Z 33010KT CAVOK 26/15 Q1012 NOSIG
EPGD - Gdańsk, Pomorze, Polska
Odległość od stacji: Pn 253km
Aktualizacja: 18-07-23 11:00
Bezchmurnie
Bezchmurnie
 Wiatr z PnZd
Wiatr: PnZd 7 km/h
Temperatura: 25°C
Punkt Rosy: 10°C
Wilgotność: 39%
Ciśnienie: 1014 hPa
Podsumowanie: Bezchmurnie
Widoczność: większa niż 10 km
2018/07/23 09:00 EPGD 230900Z 31004KT 240V010 CAVOK 25/10 Q1014
EPKT - Katowice, Śląsk, Polska
Odległość od stacji: Pd 270km
Aktualizacja: 18-07-23 11:00
niewielkie zachmurzenie
niewielkie zachmurzenie
 Wiatr z Pn
Wiatr: Pn 20 km/h
Temperatura: 25°C
Punkt Rosy: 15°C
Wilgotność: 54%
Ciśnienie: 1013 hPa
Zachmurzenie: niewielkie zachmurzenie
Widoczność: 10 km
Szczegóły o zachmurzeniu: niewielkie zachmurzenie 1158 m
2018/07/23 09:00 EPKT 230900Z 36011KT 320V040 9999 FEW038TCU 25/15 Q1013
 
EPSC - Szczecin, Pomorze Zachodnie, Polska
Odległość od stacji: PnZd 329km
Aktualizacja: 18-07-23 11:00
Bezchmurnie
Bezchmurnie
 Wiatr z ZdPdZa
Wiatr: ZdPdZa 11 km/h
Temperatura: 24°C
Punkt Rosy: 17°C
Wilgotność: 65%
Ciśnienie: 1014 hPa
Podsumowanie: Bezchmurnie
Widoczność: większa niż 10 km
2018/07/23 09:00 EPSC 230900Z 24006KT 200V300 CAVOK 24/17 Q1014
EPBY - Bydgoszcz
Odległość od stacji: Pn 95km
Aktualizacja: 18-07-23 11:00
Bezchmurnie
Bezchmurnie
 Wiatr z Pn
Wiatr: Pn 9 km/h
Temperatura: 25°C
Punkt Rosy: 10°C
Wilgotność: 39%
Ciśnienie: 1014 hPa
Podsumowanie: Bezchmurnie
Widoczność: większa niż 10 km
2018/07/23 09:00 EPBY 230900Z 01005KT 320V080 CAVOK 25/10 Q1014
EPZG - Zielona Góra, Ziemia Lubuska, Polska
Odległość od stacji: ZdPdZa 235km
Aktualizacja: 18-07-23 11:00
Bezchmurnie
Bezchmurnie
 Wiatr z zmienny
Wiatr: zmienny 6 km/h
Temperatura: 26°C
Punkt Rosy: 15°C
Wilgotność: 51%
Ciśnienie: 1015 hPa
Podsumowanie: Bezchmurnie
Widoczność: większa niż 10 km
2018/07/23 09:00 EPZG 230900Z VRB03KT CAVOK 26/15 Q1015